createdAt,value
2022-11-04T00:00:28.594Z,99629.47
2022-11-04T00:02:57.785Z,99623.31
2022-11-04T00:05:25.585Z,99610.09
2022-11-04T00:08:11.070Z,99607.41
2022-11-04T00:11:07.742Z,99607.41
2022-11-04T00:13:36.813Z,99615.31
2022-11-04T00:16:22.190Z,99608.28
2022-11-04T00:18:49.903Z,99598.59
2022-11-04T00:21:35.442Z,99595.03
2022-11-04T00:24:20.659Z,99602.09
2022-11-04T00:27:06.211Z,99609.13
2022-11-04T00:29:35.481Z,99610.00
2022-11-04T00:32:20.570Z,99603.84
2022-11-04T00:34:48.342Z,99582.72
2022-11-04T00:37:16.047Z,99584.44
2022-11-04T00:39:43.940Z,99589.72
2022-11-04T00:42:11.814Z,99592.34
2022-11-04T00:44:40.905Z,99595.00
2022-11-04T00:47:08.644Z,99594.13
2022-11-04T00:49:36.572Z,99602.91
2022-11-04T00:52:04.470Z,99601.13
2022-11-04T00:54:32.206Z,99595.84
2022-11-04T00:56:59.962Z,99595.84
2022-11-04T00:59:28.040Z,99589.69
2022-11-04T01:01:57.988Z,99600.25
2022-11-04T01:04:25.858Z,99594.94
2022-11-04T01:06:53.658Z,99606.38
2022-11-04T01:09:21.598Z,99607.25
2022-11-04T01:11:49.568Z,99619.59
2022-11-04T01:14:17.816Z,99615.16
2022-11-04T01:16:45.575Z,99606.38
2022-11-04T01:19:14.668Z,99607.25
2022-11-04T01:21:42.436Z,99607.22
2022-11-04T01:24:10.988Z,99597.50
2022-11-04T01:26:38.917Z,99591.38
2022-11-04T01:29:06.945Z,99578.13
2022-11-04T01:31:34.713Z,99578.13
2022-11-04T01:34:02.662Z,99581.63
2022-11-04T01:36:31.727Z,99585.16
2022-11-04T01:38:59.507Z,99571.06
2022-11-04T01:41:29.140Z,99572.84
2022-11-04T01:43:58.323Z,99571.94
2022-11-04T01:46:32.112Z,99571.06
2022-11-04T01:49:05.111Z,99573.69
2022-11-04T01:51:38.373Z,99563.13
2022-11-04T01:54:09.074Z,99577.22
2022-11-04T01:56:38.351Z,99569.28
2022-11-04T01:59:13.431Z,99562.25
2022-11-04T02:01:41.352Z,99573.69
2022-11-04T02:04:30.080Z,99572.81
2022-11-04T02:07:01.449Z,99571.91
2022-11-04T02:09:31.034Z,99567.50
2022-11-04T02:12:16.563Z,99561.31
2022-11-04T02:14:45.603Z,99563.06
2022-11-04T02:17:30.889Z,99548.94
2022-11-04T02:20:25.031Z,99554.25
2022-11-04T02:23:28.877Z,99555.16
2022-11-04T02:26:44.645Z,99553.38
2022-11-04T02:29:24.836Z,99548.09
2022-11-04T02:32:01.685Z,99548.09
2022-11-04T02:34:40.215Z,99540.16
2022-11-04T02:37:15.658Z,99545.44
2022-11-04T02:39:52.694Z,99544.56
2022-11-04T02:42:29.673Z,99544.56
2022-11-04T02:45:16.489Z,99548.97
2022-11-04T02:47:47.147Z,99558.66
2022-11-04T02:50:22.053Z,99547.22
2022-11-04T02:52:57.512Z,99548.97
2022-11-04T02:55:28.790Z,99549.84
2022-11-04T02:57:59.578Z,99552.50
2022-11-04T03:00:30.311Z,99548.94
2022-11-04T03:03:03.695Z,99553.34
2022-11-04T03:05:34.768Z,99549.84
2022-11-04T03:08:07.713Z,99552.50
2022-11-04T03:10:39.549Z,99554.22
2022-11-04T03:13:14.469Z,99556.00
2022-11-04T03:15:49.665Z,99553.34
2022-11-04T03:18:23.927Z,99540.13
2022-11-04T03:20:53.966Z,99552.47
2022-11-04T03:23:21.729Z,99547.19
2022-11-04T03:25:53.402Z,99557.75
2022-11-04T03:28:36.363Z,99561.25
2022-11-04T03:31:08.367Z,99565.66
2022-11-04T03:33:42.043Z,99566.56
2022-11-04T03:36:10.537Z,99570.94
2022-11-04T03:38:39.599Z,99580.63
2022-11-04T03:41:14.462Z,99577.13
2022-11-04T03:43:43.131Z,99582.41
2022-11-04T03:46:12.948Z,99587.69
2022-11-04T03:48:42.944Z,99601.78
2022-11-04T03:51:10.844Z,99603.59
2022-11-04T03:53:38.695Z,99608.00
2022-11-04T03:56:25.180Z,99608.00
2022-11-04T03:59:06.760Z,99617.69
2022-11-04T04:01:46.782Z,99616.81
2022-11-04T04:04:21.816Z,99622.09
2022-11-04T04:06:53.421Z,99623.88
2022-11-04T04:09:25.483Z,99618.59
2022-11-04T04:11:59.446Z,99620.31
2022-11-04T04:14:41.377Z,99619.44
2022-11-04T04:17:19.089Z,99616.78
2022-11-04T04:19:52.211Z,99617.66
2022-11-04T04:22:24.244Z,99613.22
2022-11-04T04:25:13.168Z,99622.09
2022-11-04T04:27:42.697Z,99618.50
2022-11-04T04:30:13.454Z,99612.34
2022-11-04T04:32:46.833Z,99620.25
2022-11-04T04:35:32.715Z,99626.41
2022-11-04T04:38:18.106Z,99630.84
2022-11-04T04:41:05.874Z,99637.88
2022-11-04T04:43:56.357Z,99636.13
2022-11-04T04:46:24.860Z,99653.72
2022-11-04T04:48:53.962Z,99641.41
2022-11-04T04:51:22.652Z,99652.84
2022-11-04T04:53:50.383Z,99657.28
2022-11-04T04:56:18.292Z,99659.00
2022-11-04T04:58:46.105Z,99653.69
2022-11-04T05:01:14.092Z,99644.00
2022-11-04T05:03:45.101Z,99645.78
2022-11-04T05:06:14.510Z,99629.88
2022-11-04T05:08:42.276Z,99636.94
2022-11-04T05:11:10.158Z,99639.53
2022-11-04T05:13:38.013Z,99639.53
2022-11-04T05:16:07.618Z,99638.66
2022-11-04T05:18:35.857Z,99642.19
2022-11-04T05:21:06.040Z,99639.53
2022-11-04T05:23:35.535Z,99648.38
2022-11-04T05:26:03.386Z,99643.06
2022-11-04T05:28:31.262Z,99650.09
2022-11-04T05:30:59.223Z,99643.06
2022-11-04T05:33:27.008Z,99651.88
2022-11-04T05:35:54.892Z,99662.47
2022-11-04T05:38:22.717Z,99662.47
2022-11-04T05:40:52.220Z,99692.41
2022-11-04T05:43:20.011Z,99700.34
2022-11-04T05:45:47.820Z,99696.84
2022-11-04T05:48:15.556Z,99686.28
2022-11-04T05:50:43.483Z,99691.56
2022-11-04T05:53:11.635Z,99688.03
2022-11-04T05:55:39.749Z,99684.47
2022-11-04T05:58:09.180Z,99687.97
2022-11-04T06:00:37.380Z,99692.38
2022-11-04T06:03:05.438Z,99696.81
2022-11-04T06:05:33.289Z,99701.19
2022-11-04T06:08:01.065Z,99710.91
2022-11-04T06:10:28.953Z,99716.19
2022-11-04T06:12:57.043Z,99710.88
2022-11-04T06:15:26.213Z,99701.16
2022-11-04T06:17:54.006Z,99716.16
2022-11-04T06:20:21.833Z,99717.03
2022-11-04T06:22:50.149Z,99739.91
2022-11-04T06:25:18.178Z,99747.84
2022-11-04T06:27:45.985Z,99759.31
2022-11-04T06:30:14.013Z,99756.69
2022-11-04T06:32:43.183Z,99740.75
2022-11-04T06:35:10.969Z,99732.81
2022-11-04T06:37:38.939Z,99742.53
2022-11-04T06:40:08.338Z,99742.53
2022-11-04T06:42:36.191Z,99744.28
2022-11-04T06:45:04.276Z,99749.59
2022-11-04T06:47:32.090Z,99754.88
2022-11-04T06:50:01.988Z,99746.97
2022-11-04T06:52:29.787Z,99753.13
2022-11-04T06:54:57.573Z,99761.97
2022-11-04T06:57:25.333Z,99769.00
2022-11-04T06:59:53.780Z,99777.84
2022-11-04T07:02:21.658Z,99775.22
2022-11-04T07:04:49.685Z,99790.19
2022-11-04T07:07:18.953Z,99804.31
2022-11-04T07:09:47.053Z,99807.84
2022-11-04T07:12:14.983Z,99806.13
2022-11-04T07:14:42.818Z,99805.22
2022-11-04T07:17:10.582Z,99811.41
2022-11-04T07:19:38.671Z,99817.56
2022-11-04T07:22:08.342Z,99814.00
2022-11-04T07:24:37.597Z,99805.19
2022-11-04T07:27:07.531Z,99795.47
2022-11-04T07:29:35.359Z,99795.47
2022-11-04T07:32:03.192Z,99806.91
2022-11-04T07:34:30.994Z,99812.19
2022-11-04T07:36:59.054Z,99816.59
2022-11-04T07:39:26.960Z,99806.91
2022-11-04T07:41:59.414Z,99818.38
2022-11-04T07:44:27.888Z,99822.75
2022-11-04T07:46:55.772Z,99831.56
2022-11-04T07:49:23.654Z,99835.13
2022-11-04T07:51:51.452Z,99844.78
2022-11-04T07:54:19.461Z,99841.25
2022-11-04T07:56:47.587Z,99832.41
2022-11-04T07:59:16.760Z,99829.75
2022-11-04T08:01:44.737Z,99828.88
2022-11-04T08:04:12.567Z,99828.88
2022-11-04T08:06:40.439Z,99837.66
2022-11-04T08:09:08.411Z,99837.66
2022-11-04T08:11:36.280Z,99839.38
2022-11-04T08:14:05.333Z,99834.06
2022-11-04T08:16:34.720Z,99834.06
2022-11-04T08:19:02.795Z,99844.63
2022-11-04T08:21:32.222Z,99845.47
2022-11-04T08:24:03.279Z,99853.41
2022-11-04T08:26:31.827Z,99836.59
2022-11-04T08:29:01.584Z,99834.78
2022-11-04T08:31:31.959Z,99844.47
2022-11-04T08:34:06.131Z,99846.19
2022-11-04T08:36:36.733Z,99847.03
2022-11-04T08:39:10.421Z,99845.22
2022-11-04T08:41:41.113Z,99861.06
2022-11-04T08:44:09.829Z,99856.63
2022-11-04T08:46:39.646Z,99867.22
2022-11-04T08:49:12.017Z,99854.84
2022-11-04T08:51:44.377Z,99855.69
2022-11-04T08:54:12.212Z,99855.66
2022-11-04T08:56:41.528Z,99851.19
2022-11-04T08:59:10.556Z,99865.34
2022-11-04T09:01:39.125Z,99862.63
2022-11-04T09:04:08.351Z,99852.91
2022-11-04T09:06:38.559Z,99845.81
2022-11-04T09:09:08.589Z,99844.91
2022-11-04T09:11:41.075Z,99832.56
2022-11-04T09:14:09.145Z,99843.06
2022-11-04T09:16:38.187Z,99832.47
2022-11-04T09:19:05.999Z,99821.84
2022-11-04T09:21:35.288Z,99823.59
2022-11-04T09:24:03.077Z,99810.34
2022-11-04T09:26:31.483Z,99804.97
2022-11-04T09:29:00.122Z,99794.38
2022-11-04T09:31:29.494Z,99787.25
2022-11-04T09:33:57.760Z,99782.84
2022-11-04T09:36:25.777Z,99781.03
2022-11-04T09:38:54.891Z,99775.69
2022-11-04T09:41:49.608Z,99774.78
2022-11-04T09:44:24.360Z,99784.47
2022-11-04T09:46:54.627Z,99780.91
2022-11-04T09:49:23.135Z,99786.19
2022-11-04T09:51:55.377Z,99802.06
2022-11-04T09:54:28.131Z,99817.94
2022-11-04T09:56:58.942Z,99829.38
2022-11-04T09:59:29.523Z,99827.59
2022-11-04T10:02:29.028Z,99826.69
2022-11-04T10:05:05.987Z,99817.84
2022-11-04T10:07:47.779Z,99816.94
2022-11-04T10:10:24.210Z,99826.63
2022-11-04T10:13:09.196Z,99831.88
2022-11-04T10:15:52.673Z,99836.28
2022-11-04T10:18:35.079Z,99850.34
2022-11-04T10:21:11.508Z,99862.69
2022-11-04T10:23:45.773Z,99868.00
2022-11-04T10:26:18.034Z,99880.34
2022-11-04T10:28:53.740Z,99861.75
2022-11-04T10:31:21.495Z,99872.38
2022-11-04T10:33:53.218Z,99872.38
2022-11-04T10:36:22.208Z,99882.97
2022-11-04T10:38:53.180Z,99879.41
2022-11-04T10:41:30.835Z,99872.28
2022-11-04T10:44:02.877Z,99871.41
2022-11-04T10:46:47.008Z,99881.13
2022-11-04T10:49:39.230Z,99880.22
2022-11-04T10:52:08.794Z,99877.56
2022-11-04T10:54:41.668Z,99874.03
2022-11-04T10:57:12.002Z,99880.19
2022-11-04T10:59:51.294Z,99890.81
2022-11-04T11:02:19.789Z,99890.78
2022-11-04T11:04:49.157Z,99895.22
2022-11-04T11:07:22.784Z,99892.56
2022-11-04T11:09:54.717Z,99898.75
2022-11-04T11:12:50.024Z,99885.50
2022-11-04T11:15:30.327Z,99889.94
2022-11-04T11:18:02.316Z,99885.53
2022-11-04T11:20:32.471Z,99896.13
2022-11-04T11:23:04.821Z,99891.75
2022-11-04T11:25:34.261Z,99901.44
2022-11-04T11:28:05.977Z,99909.41
2022-11-04T11:30:37.057Z,99909.47
2022-11-04T11:33:08.621Z,99905.94
2022-11-04T11:35:42.171Z,99907.72
2022-11-04T11:38:23.213Z,99914.81
2022-11-04T11:41:18.790Z,99904.22
2022-11-04T11:43:45.450Z,99917.44
2022-11-04T11:46:14.449Z,99920.09
2022-11-04T11:48:44.422Z,99911.25
2022-11-04T11:51:14.388Z,99907.72
2022-11-04T11:53:58.678Z,99905.09
2022-11-04T11:56:51.757Z,99908.66
2022-11-04T12:02:28.132Z,99911.34
2022-11-04T12:10:51.763Z,99921.06
2022-11-04T12:13:29.522Z,99929.00
2022-11-04T12:16:21.108Z,99923.75
2022-11-04T12:19:09.211Z,99937.91
2022-11-04T12:21:41.625Z,99935.25
2022-11-04T12:24:24.465Z,99944.09
2022-11-04T12:27:00.930Z,99936.16
2022-11-04T12:29:42.053Z,99930.84
2022-11-04T12:32:21.395Z,99937.94
2022-11-04T12:35:10.123Z,99936.16
2022-11-04T12:37:44.228Z,99946.78
2022-11-04T12:40:22.204Z,99937.97
2022-11-04T12:43:07.677Z,99948.56
2022-11-04T12:45:50.110Z,99945.88
2022-11-04T12:48:36.631Z,99949.41
2022-11-04T12:51:10.932Z,99949.38
2022-11-04T12:54:04.143Z,99945.81
2022-11-04T12:56:38.445Z,99951.13
2022-11-04T12:59:26.832Z,99951.97
2022-11-04T13:01:59.349Z,99950.16
2022-11-04T13:04:35.013Z,99942.19
2022-11-04T13:07:06.343Z,99943.97
2022-11-04T13:09:40.598Z,99947.47
2022-11-04T13:12:12.283Z,99950.13
2022-11-04T13:14:46.051Z,99947.44
2022-11-04T13:17:18.776Z,99941.22
2022-11-04T13:19:52.245Z,99943.84
2022-11-04T13:22:24.871Z,99942.00
2022-11-04T13:24:57.682Z,99940.16
2022-11-04T13:27:28.968Z,99940.03
2022-11-04T13:30:05.471Z,99952.38
2022-11-04T13:32:39.102Z,99947.81
2022-11-04T13:35:14.559Z,99959.16
2022-11-04T13:37:50.063Z,99952.81
2022-11-04T13:40:20.339Z,99947.28
2022-11-04T13:43:25.812Z,99946.09
2022-11-04T13:45:56.462Z,99946.75
2022-11-04T13:48:27.669Z,99950.19
2022-11-04T13:51:01.944Z,99963.38
2022-11-04T13:53:45.344Z,99962.34
2022-11-04T13:56:33.928Z,99959.53
2022-11-04T13:59:08.796Z,99977.22
2022-11-04T14:01:36.771Z,99976.41
2022-11-04T14:04:26.976Z,99973.00
2022-11-04T14:06:59.694Z,99980.19
2022-11-04T14:09:38.005Z,99986.53
2022-11-04T14:12:35.551Z,100001.69
2022-11-04T14:15:11.583Z,99999.09
2022-11-04T14:17:59.323Z,100006.25
2022-11-04T14:20:31.836Z,100011.63
2022-11-04T14:23:03.123Z,100014.31
2022-11-04T14:25:34.503Z,100010.00
2022-11-04T14:28:17.136Z,100017.97
2022-11-04T14:30:49.723Z,100003.00
2022-11-04T14:33:33.358Z,100010.16
2022-11-04T14:36:17.634Z,100019.94
2022-11-04T14:38:55.461Z,100019.97
2022-11-04T14:41:31.141Z,100010.25
2022-11-04T14:44:02.063Z,100014.75
2022-11-04T14:46:32.841Z,100019.19
2022-11-04T14:49:02.318Z,100019.25
2022-11-04T14:51:32.409Z,100027.22
2022-11-04T14:54:09.199Z,100029.94
2022-11-04T14:56:37.016Z,100032.63
2022-11-04T14:59:07.112Z,100032.66
2022-11-04T15:01:37.730Z,100027.41
2022-11-04T15:04:13.496Z,100035.34
2022-11-04T15:06:54.961Z,100040.69
2022-11-04T15:09:27.616Z,100040.72
2022-11-04T15:12:25.721Z,100039.00
2022-11-04T15:14:53.542Z,100052.31
2022-11-04T15:17:23.244Z,100048.81
2022-11-04T15:19:53.914Z,100050.59
2022-11-04T15:22:21.669Z,100056.81
2022-11-04T15:24:51.623Z,100059.53
2022-11-04T15:27:29.163Z,100055.13
2022-11-04T15:29:59.141Z,100056.91
2022-11-04T15:32:27.478Z,100060.53
2022-11-04T15:34:56.370Z,100058.75
2022-11-04T15:37:26.248Z,100071.16
2022-11-04T15:39:58.658Z,100057.94
2022-11-04T15:42:40.098Z,100069.47
2022-11-04T15:45:34.673Z,100069.50
2022-11-04T15:48:31.697Z,100058.94
2022-11-04T15:51:13.542Z,100059.91
2022-11-04T15:53:50.983Z,100058.16
2022-11-04T15:56:23.330Z,100053.78
2022-11-04T15:58:52.946Z,100064.44
2022-11-04T16:01:21.624Z,100062.72
2022-11-04T16:03:52.084Z,100075.13
2022-11-04T16:06:34.656Z,100078.72
2022-11-04T16:09:05.413Z,100083.19
2022-11-04T16:11:35.020Z,100091.19
2022-11-04T16:14:24.133Z,100088.56
2022-11-04T16:16:53.890Z,100091.22
2022-11-04T16:19:25.820Z,100094.81
2022-11-04T16:22:01.306Z,100091.31
2022-11-04T16:24:32.486Z,100076.31
2022-11-04T16:27:02.232Z,100074.56
2022-11-04T16:29:32.375Z,100085.19
2022-11-04T16:32:17.014Z,100080.81
2022-11-04T16:34:45.809Z,100088.78
2022-11-04T16:37:13.780Z,100093.22
2022-11-04T16:39:41.790Z,100094.13
2022-11-04T16:42:13.840Z,100101.19
2022-11-04T16:44:47.025Z,100097.69
2022-11-04T16:47:14.926Z,100097.72
2022-11-04T16:49:42.810Z,100091.53
2022-11-04T16:52:14.648Z,100098.63
2022-11-04T16:54:42.453Z,100108.38
2022-11-04T16:57:15.170Z,100105.72
2022-11-04T16:59:43.034Z,100114.59
2022-11-04T17:02:24.743Z,100125.19
2022-11-04T17:04:53.235Z,100133.13
2022-11-04T17:07:30.489Z,100138.47
2022-11-04T17:10:16.182Z,100128.75
2022-11-04T17:12:46.011Z,100138.47
2022-11-04T17:15:14.591Z,100152.59
2022-11-04T17:17:43.143Z,100141.13
2022-11-04T17:20:14.199Z,100144.69
2022-11-04T17:22:43.150Z,100147.34
2022-11-04T17:25:17.532Z,100152.63
2022-11-04T17:27:46.945Z,100158.81
2022-11-04T17:30:17.010Z,100151.75
2022-11-04T17:32:46.582Z,100156.16
2022-11-04T17:35:15.342Z,100158.81
2022-11-04T17:37:43.519Z,100165.88
2022-11-04T17:40:15.405Z,100163.22
2022-11-04T17:43:01.972Z,100167.66
2022-11-04T17:45:32.261Z,100164.13
2022-11-04T17:48:03.905Z,100169.44
2022-11-04T17:50:32.190Z,100173.81
2022-11-04T17:53:00.090Z,100177.38
2022-11-04T17:55:28.072Z,100176.47
2022-11-04T17:57:57.150Z,100179.13
2022-11-04T18:00:29.556Z,100176.47
2022-11-04T18:02:58.873Z,100177.38
2022-11-04T18:05:27.017Z,100177.38
2022-11-04T18:07:56.459Z,100180.03
2022-11-04T18:10:24.356Z,100187.06
2022-11-04T18:12:52.781Z,100185.31
2022-11-04T18:15:20.731Z,100180.88
2022-11-04T18:17:49.990Z,100187.97
2022-11-04T18:20:19.247Z,100190.59
2022-11-04T18:22:47.345Z,100187.97
2022-11-04T18:25:15.638Z,100187.97
2022-11-04T18:27:43.548Z,100197.69
2022-11-04T18:30:12.471Z,100195.91
2022-11-04T18:32:40.228Z,100195.91
2022-11-04T18:35:09.097Z,100201.19
2022-11-04T18:37:40.658Z,100202.97
2022-11-04T18:40:12.023Z,100197.69
2022-11-04T18:42:39.789Z,100200.31
2022-11-04T18:45:08.653Z,100203.84
2022-11-04T18:47:36.449Z,100207.31
2022-11-04T18:50:04.236Z,100209.13
2022-11-04T18:52:32.011Z,100207.31
2022-11-04T18:55:01.143Z,100199.38
2022-11-04T18:57:28.901Z,100196.78
2022-11-04T18:59:56.783Z,100201.19
2022-11-04T19:02:24.930Z,100198.53
2022-11-04T19:04:53.728Z,100199.41
2022-11-04T19:07:21.607Z,100197.63
2022-11-04T19:09:49.394Z,100201.19
2022-11-04T19:12:41.600Z,100202.94
2022-11-04T19:15:10.266Z,100205.59
2022-11-04T19:17:38.152Z,100215.28
2022-11-04T19:20:12.122Z,100214.38
2022-11-04T19:22:41.389Z,100216.16
2022-11-04T19:25:09.787Z,100216.16
2022-11-04T19:27:38.942Z,100221.47
2022-11-04T19:30:07.751Z,100228.53
2022-11-04T19:32:35.727Z,100229.41
2022-11-04T19:35:03.667Z,100219.69
2022-11-04T19:37:31.408Z,100217.03
2022-11-04T19:39:59.218Z,100219.69
2022-11-04T19:42:44.773Z,100224.97
2022-11-04T19:45:13.943Z,100221.47
2022-11-04T19:47:41.890Z,100223.19
2022-11-04T19:50:10.228Z,100227.63
2022-11-04T19:52:37.976Z,100224.06
2022-11-04T19:55:07.248Z,100229.38
2022-11-04T19:57:35.456Z,100232.00
2022-11-04T20:00:03.682Z,100235.53
2022-11-04T20:02:40.775Z,100245.25
2022-11-04T20:05:11.768Z,100249.66
2022-11-04T20:07:39.831Z,100255.84
2022-11-04T20:10:08.534Z,100252.28
2022-11-04T20:12:50.396Z,100260.22
2022-11-04T20:15:18.208Z,100266.44
2022-11-04T20:17:47.874Z,100262.88
2022-11-04T20:20:16.352Z,100269.94
2022-11-04T20:22:44.126Z,100267.31
2022-11-04T20:25:11.933Z,100272.59
2022-11-04T20:27:39.787Z,100267.31
2022-11-04T20:30:08.710Z,100273.47
2022-11-04T20:32:36.504Z,100276.13
2022-11-04T20:35:06.380Z,100281.41
2022-11-04T20:37:34.317Z,100280.53
2022-11-04T20:40:02.399Z,100278.75
2022-11-04T20:42:30.236Z,100289.34
2022-11-04T20:44:57.969Z,100287.59
2022-11-04T20:47:25.784Z,100295.53
2022-11-04T20:49:53.518Z,100301.72
2022-11-04T20:52:22.753Z,100307.03
2022-11-04T20:54:50.525Z,100315.84
2022-11-04T20:57:18.306Z,100306.13
2022-11-04T20:59:46.069Z,100317.63
2022-11-04T21:02:13.908Z,100322.00
2022-11-04T21:04:41.775Z,100316.72
2022-11-04T21:07:09.535Z,100323.78
2022-11-04T21:09:38.651Z,100325.53
2022-11-04T21:12:07.015Z,100328.16
2022-11-04T21:14:35.374Z,100333.47
2022-11-04T21:17:03.182Z,100329.94
2022-11-04T21:19:31.218Z,100340.53
2022-11-04T21:21:59.062Z,100342.31
2022-11-04T21:24:27.012Z,100340.53
2022-11-04T21:26:56.138Z,100344.06
2022-11-04T21:29:23.877Z,100344.06
2022-11-04T21:31:51.590Z,100342.31
2022-11-04T21:34:19.376Z,100342.31
2022-11-04T21:36:47.244Z,100345.84
2022-11-04T21:39:14.997Z,100345.84
2022-11-04T21:41:42.746Z,100350.25
2022-11-04T21:44:14.108Z,100352.03
2022-11-04T21:46:42.419Z,100355.56
2022-11-04T21:49:12.624Z,100353.78
2022-11-04T21:51:40.384Z,100359.06
2022-11-04T21:54:08.784Z,100356.44
2022-11-04T21:56:36.788Z,100358.22
2022-11-04T21:59:05.193Z,100362.63
2022-11-04T22:01:34.496Z,100359.97
2022-11-04T22:04:03.087Z,100367.94
2022-11-04T22:06:35.283Z,100367.03
2022-11-04T22:09:04.564Z,100368.81
2022-11-04T22:11:34.091Z,100365.28
2022-11-04T22:14:03.936Z,100359.97
2022-11-04T22:16:35.115Z,100365.28
2022-11-04T22:19:05.228Z,100365.28
2022-11-04T22:21:33.916Z,100367.94
2022-11-04T22:24:02.188Z,100364.38
2022-11-04T22:26:32.399Z,100371.44
2022-11-04T22:29:00.804Z,100376.75
2022-11-04T22:31:30.096Z,100376.75
2022-11-04T22:34:00.791Z,100375.88
2022-11-04T22:36:29.155Z,100375.88
2022-11-04T22:38:56.970Z,100376.75
2022-11-04T22:41:27.101Z,100382.03
2022-11-04T22:43:56.217Z,100382.03
2022-11-04T22:46:26.146Z,100374.09
2022-11-04T22:48:54.076Z,100386.47
2022-11-04T22:51:23.261Z,100385.59
2022-11-04T22:53:56.586Z,100390.88
2022-11-04T22:56:25.731Z,100393.53
2022-11-04T22:58:54.249Z,100389.97
2022-11-04T23:01:22.653Z,100400.59
2022-11-04T23:03:51.857Z,100404.09
2022-11-04T23:06:20.099Z,100412.03
2022-11-04T23:08:49.255Z,100409.41
2022-11-04T23:11:37.291Z,100408.50
2022-11-04T23:14:22.666Z,100414.72
2022-11-04T23:17:09.770Z,100413.78
2022-11-04T23:19:38.693Z,100417.34
2022-11-04T23:22:24.523Z,100421.75
2022-11-04T23:25:09.867Z,100423.50
2022-11-04T23:27:57.722Z,100430.56
2022-11-04T23:30:27.053Z,100422.63
2022-11-04T23:32:56.914Z,100419.97
2022-11-04T23:35:44.091Z,100421.75
2022-11-04T23:38:12.441Z,100422.63
2022-11-04T23:40:41.623Z,100421.72
2022-11-04T23:43:09.539Z,100427.00
2022-11-04T23:45:55.192Z,100430.56
2022-11-04T23:48:40.343Z,100429.63
2022-11-04T23:51:28.603Z,100432.28
2022-11-04T23:54:14.052Z,100431.38
2022-11-04T23:57:00.907Z,100440.22
2022-11-04T23:59:46.059Z,100436.69
